• Join FlightAware (Why Join?)
  • Login
  • US Flag 
01:15AM EDT


 

Airport Tracker/Info


-or-


 

Live Flight TrackerFlight Track Log ✈ DAL268 ✈ 31-Aug-2013 ✈ KJFK - LLBG / TLV

Flight Track Log - Related Links

Times and Time Zones

All times are in EDT time to prevent confusion due to time zone crossing. See the DAL268 flight status page for this flight to view local times or setup timezone preferences in your user account.

Time Position Orientation Groundspeed Altitude Reporting Facility
EDT Latitude Longitude Course Direction KTS MPH feet Rate Location/Type
11:55PM 40.6370 -73.7800 264° West  Level FlightAware
12:14AM 40.8650 -73.5684 37° Northeast  Level FlightAware Approximate
12:15AM 40.9742 -73.4608 30° Northeast  Level FlightAware Approximate
12:16AM 41.0961 -73.3661 30° Northeast  Level FlightAware Approximate
12:17AM 41.2153 -73.2680 37° Northeast  Level FlightAware Approximate
12:18AM 41.3287 -73.1607 21° North  Level FlightAware Approximate
12:19AM 41.4134 -73.0232 56° Northeast  Level FlightAware Approximate
12:20AM 41.4852 -72.8639 48° Northeast  Level FlightAware Approximate
12:30AM 40.8861 -73.5473 37° Northeast  Level FlightAware Approximate
12:31AM 40.6400 -73.7990 122° Southeast 140 161  Level FlightAware
12:31AM 40.6330 -73.7830 120° Southeast 181 208 200 780 Climbing FlightAware
12:31AM 40.6230 -73.7590 119° Southeast 191 220 600 1,080 Climbing FlightAware
12:31AM 40.6200 -73.7510 116° Southeast 198 228 800 1,320 Climbing FlightAware
12:32AM 40.6190 -73.7390 96° East 201 231 1,000 1,380 Climbing FlightAware
12:32AM 40.6170 -73.7140 96° East 208 239 1,500 960 Climbing FlightAware
12:32AM 40.6160 -73.6740 92° East 239 275 1,800 540 Climbing FlightAware
12:33AM 40.6140 -73.6360 94° East 265 305 2,000 840 Climbing FlightAware
12:33AM 40.6120 -73.6070 95° East 276 318 2,400 840 Climbing FlightAware
12:34AM 40.6240 -73.5580 72° East 300 345 2,700 660 Climbing FlightAware
12:34AM 40.6310 -73.5470 50° Northeast 304 350 2,900 1,500 Climbing FlightAware
12:34AM 40.6560 -73.5280 30° Northeast 304 350 3,400 2,400 Climbing FlightAware
12:34AM 40.6780 -73.5220 12° North 302 348 4,100 2,220 Climbing FlightAware
12:35AM 40.6950 -73.5190 North 304 350 4,500 1,260 Climbing FlightAware
12:35AM 40.7110 -73.5140 13° North 312 359 4,800 1,920 Climbing FlightAware
12:35AM 40.7340 -73.5040 18° North 318 366 5,400 2,640 Climbing FlightAware
12:35AM 40.7600 -73.4880 25° Northeast 320 368 6,100 2,160 Climbing FlightAware
12:36AM 40.7780 -73.4780 23° Northeast 321 369 6,600 2,040 Climbing FlightAware
12:36AM 40.8100 -73.4590 24° Northeast 325 374 7,300 1,980 Climbing FlightAware
12:36AM 40.8380 -73.4440 22° Northeast 328 377 8,000 2,100 Climbing FlightAware
12:37AM 40.8670 -73.4270 24° Northeast 330 380 8,700 2,040 Climbing FlightAware
12:37AM 40.8980 -73.4110 21° North 332 382 9,400 1,800 Climbing FlightAware
12:38AM 40.9460 -73.3840 23° Northeast 337 388 10,500 1,380 Climbing FlightAware
12:38AM 41.0010 -73.3530 23° Northeast 364 419 11,100 1,020 Climbing FlightAware
12:39AM 41.0490 -73.3070 36° Northeast 392 451 11,700 960 Climbing FlightAware
12:39AM 41.0920 -73.2420 49° Northeast 418 481 12,200 1,140 Climbing FlightAware
12:40AM 41.1310 -73.1790 51° Northeast 434 499 13,000 1,680 Climbing FlightAware
12:40AM 41.1810 -73.0990 50° Northeast 442 509 14,200 1,860 Climbing FlightAware
12:41AM 41.2230 -73.0310 51° Northeast 449 517 15,200 2,700 Climbing FlightAware
12:42AM 41.2790 -72.9430 50° Northeast 426 490 17,700 2,880 Climbing FlightAware
12:42AM 41.3230 -72.8730 50° Northeast 423 487 19,100 1,980 Climbing FlightAware
12:43AM 41.3680 -72.8010 50° Northeast 429 494 20,000 1,440 Climbing FlightAware
12:43AM 41.4130 -72.7290 50° Northeast 437 503 20,800 1,080 Climbing FlightAware
12:44AM 41.4550 -72.6620 50° Northeast 452 520 21,300 1,080 Climbing FlightAware
12:45AM 41.5140 -72.5660 51° Northeast 464 534 22,200 1,200 Climbing FlightAware
12:45AM 41.5590 -72.4930 51° Northeast 471 542 22,800 1,020 Climbing FlightAware
12:46AM 41.6210 -72.3920 51° Northeast 486 559 23,500 1,020 Climbing FlightAware
12:46AM 41.6670 -72.3180 50° Northeast 491 565 24,100 1,020 Climbing FlightAware
12:47AM 41.7260 -72.2220 51° Northeast 501 577 24,800 960 Climbing FlightAware
12:48AM 41.7730 -72.1450 51° Northeast 505 581 25,400 1,020 Climbing FlightAware
12:48AM 41.8220 -72.0750 47° Northeast 504 580 26,100 1,080 Climbing FlightAware
12:49AM 41.9320 -71.9700 35° Northeast 508 585 27,000 1,020 Climbing FlightAware
12:50AM 41.9940 -71.9150 33° Northeast 512 589 27,500 960 Climbing FlightAware
12:50AM 42.0560 -71.8590 34° Northeast 515 593 28,100 1,140 Climbing FlightAware
12:51AM 42.1510 -71.7740 34° Northeast 513 590 29,000 1,200 Climbing FlightAware
12:52AM 42.2320 -71.7020 33° Northeast 511 588 29,800 1,080 Climbing FlightAware
12:52AM 42.2920 -71.6470 34° Northeast 511 588 30,400 900 Climbing FlightAware
12:53AM 42.3580 -71.5870 34° Northeast 512 589 30,900 480 Climbing FlightAware
12:54AM 42.4610 -71.4940 34° Northeast 505 581 31,100 60 Climbing FlightAware
12:54AM 42.5310 -71.4300 34° Northeast 504 580 31,000 -120 Descending FlightAware
12:55AM 42.6070 -71.3610 34° Northeast 506 582 31,000  Level FlightAware
12:55AM 42.6780 -71.2960 34° Northeast 506 582 31,000 60 Level FlightAware
12:56AM 42.7370 -71.2420 34° Northeast 507 583 31,100  Climbing FlightAware
12:57AM 42.8060 -71.1780 34° Northeast 507 583 31,000 -120 Descending FlightAware
12:57AM 42.8730 -71.1160 34° Northeast 506 582 31,000  Level FlightAware
12:58AM 42.9540 -71.0420 34° Northeast 508 585 31,000 60 Level FlightAware
12:58AM 43.0210 -70.9790 34° Northeast 508 585 31,100  Climbing FlightAware
12:59AM 43.0820 -70.9230 34° Northeast 510 587 31,000  Descending FlightAware
01:00AM 43.1500 -70.8590 34° Northeast 510 587 31,100  Climbing FlightAware
01:00AM 43.2200 -70.7930 34° Northeast 510 587 31,000  Descending FlightAware
01:01AM 43.2900 -70.7280 34° Northeast 509 586 31,100  Climbing FlightAware
01:01AM 43.3780 -70.6450 34° Northeast 509 586 31,000 -120 Descending FlightAware
01:02AM 43.4470 -70.5790 35° Northeast 509 586 31,000  Level FlightAware
01:03AM 43.5290 -70.5020 34° Northeast 508 585 31,000  Level FlightAware
01:03AM 43.5870 -70.4470 34° Northeast 507 583 31,000  Level FlightAware
01:04AM 43.6690 -70.3690 35° Northeast 508 585 31,000  Level FlightAware
01:04AM 43.7270 -70.3140 34° Northeast 513 590 31,000 60 Level FlightAware
01:05AM 43.8210 -70.2230 35° Northeast 513 590 31,100 60 Climbing FlightAware
01:06AM 43.8830 -70.1650 34° Northeast 513 590 31,100 -120 Level FlightAware
01:06AM 43.9440 -70.1050 35° Northeast 517 595 31,000 -120 Descending FlightAware
01:07AM 44.0260 -70.0260 35° Northeast 517 595 31,000  Level FlightAware
01:08AM 44.1020 -69.9520 35° Northeast 516 594 31,000 60 Level FlightAware
01:08AM 44.1600 -69.8960 35° Northeast 516 594 31,100 60 Climbing FlightAware
01:09AM 44.2250 -69.8330 35° Northeast 517 595 31,100 -120 Level FlightAware
01:09AM 44.2800 -69.7790 35° Northeast 518 596 31,000  Descending FlightAware
01:10AM 44.3790 -69.6820 35° Northeast 518 596 31,100  Climbing FlightAware
01:10AM 44.4460 -69.6160 35° Northeast 517 595 31,000 -120 Descending FlightAware
01:11AM 44.4890 -69.5740 35° Northeast 517 595 31,000  Level FlightAware
01:12AM 44.5670 -69.5050 32° Northeast 516 594 31,000  Level FlightAware
01:12AM 44.6650 -69.4380 26° Northeast 516 594 31,000  Level FlightAware
01:13AM 44.7520 -69.3830 24° Northeast 519 597 31,000  Level FlightAware
01:13AM 44.8270 -69.3340 25° Northeast 519 597 31,000  Level FlightAware
01:14AM 44.9060 -69.2830 25° Northeast 521 600 31,000  Level FlightAware
01:15AM 44.9810 -69.2340 25° Northeast 523 602 31,000  Level FlightAware
01:15AM 45.0390 -69.1960 25° Northeast 524 603 31,000  Level FlightAware
01:16AM 45.1350 -69.1330 25° Northeast 525 604 31,000 60 Level FlightAware
01:16AM 45.2020 -69.0840 27° Northeast 530 610 31,100  Climbing FlightAware
01:17AM 45.2770 -69.0250 29° Northeast 530 610 31,000 -120 Descending FlightAware
01:18AM 45.3520 -68.9650 29° Northeast 528 608 31,000 60 Level FlightAware
01:18AM 45.4170 -68.9080 32° Northeast 534 615 31,100  Climbing FlightAware
01:19AM 45.4970 -68.8280 35° Northeast 535 616 31,000 -120 Descending FlightAware
01:19AM 45.5680 -68.7550 36° Northeast 536 617 31,000  Level FlightAware
01:20AM 45.6380 -68.6820 36° Northeast 537 618 31,000  Level FlightAware
01:20AM 45.7010 -68.6150 37° Northeast 537 618 31,000  Level FlightAware
01:21AM 45.7780 -68.5330 37° Northeast 536 617 31,000  Level FlightAware
01:22AM 45.8620 -68.4430 37° Northeast 538 619 31,000  Level FlightAware
01:22AM 45.9450 -68.3540 37° Northeast 539 620 31,000  Level FlightAware
01:23AM 46.0150 -68.2770 37° Northeast 539 620 31,000  Level FlightAware
01:24AM 46.0910 -68.1950 37° Northeast 539 620 31,000  Level FlightAware
01:24AM 46.1640 -68.1170 36° Northeast 538 619 31,000  Level FlightAware
01:25AM 46.2420 -68.0310 37° Northeast 538 619 31,000  Level FlightAware
01:26AM 46.3300 -67.9350 37° Northeast 538 619 31,000  Level FlightAware
01:26AM 46.2470 -68.0260 217° Southwest 538 619 31,000  Level FlightAware
01:27AM 46.3110 -67.9560 37° Northeast 538 619 31,000  Level FlightAware
01:28AM 46.3770 -67.8840 37° Northeast 538 619 31,000  Level FlightAware
01:28AM 46.4380 -67.8180 37° Northeast 538 619 31,000  Level FlightAware
01:29AM 46.4980 -67.7510 38° Northeast 538 619 31,000  Level FlightAware
01:30AM 46.5610 -67.6830 37° Northeast 538 619 31,000  Level FlightAware
01:30AM 46.8560 -67.3500 38° Northeast 532 612 31,000  Level FlightAware
01:31AM 46.9070 -67.2940 37° Northeast 532 612 31,000  Level FlightAware
01:31AM 46.9870 -67.2050 37° Northeast 532 612 31,000  Level FlightAware
01:32AM 47.0470 -67.1390 37° Northeast 532 612 31,000  Level FlightAware
01:33AM 47.1260 -67.0520 37° Northeast 532 612 31,000  Level FlightAware
01:33AM 47.1860 -66.9850 37° Northeast 532 612 31,000  Level FlightAware
01:34AM 47.2490 -66.9150 37° Northeast 532 612 31,000  Level FlightAware
01:35AM 47.3140 -66.8420 37° Northeast 532 612 31,000  Level FlightAware
01:35AM 47.3830 -66.7660 37° Northeast 532 612 31,000  Level FlightAware
01:36AM 47.4460 -66.6960 37° Northeast 532 612 31,000  Level FlightAware
01:37AM 47.5030 -66.6320 37° Northeast 532 612 31,000  Level FlightAware
01:37AM 47.5600 -66.5690 37° Northeast 532 612 31,000  Level FlightAware
01:38AM 47.6220 -66.5000 37° Northeast 532 612 31,000  Level FlightAware
01:38AM 47.6870 -66.4270 37° Northeast 532 612 31,000  Level FlightAware
01:39AM 47.7450 -66.3610 37° Northeast 532 612 31,000  Level FlightAware
01:40AM 47.8020 -66.2980 37° Northeast 532 612 31,000  Level FlightAware
01:40AM 47.8640 -66.2280 37° Northeast 532 612 31,000  Level FlightAware
01:41AM 48.1000 -65.8833 37° Northeast 540 621 31,000  Level Gander Center
01:42AM 48.2000 -65.7833 34° Northeast 540 621 31,000  Level Moncton Center
01:43AM 48.3167 -65.6333 41° Northeast 540 621 31,000  Level Moncton Center
01:44AM 48.4333 -65.4833 40° Northeast 540 621 31,000  Level Moncton Center
01:45AM 48.5500 -65.3500 37° Northeast 540 621 31,000  Level Moncton Center
01:46AM 48.6667 -65.2167 37° Northeast 550 633 31,000  Level Moncton Center
01:47AM 48.7833 -65.0500 43° Northeast 550 633 31,000  Level Moncton Center
01:48AM 48.9000 -64.9000 40° Northeast 550 633 31,000  Level Moncton Center
01:49AM 49.0167 -64.7500 40° Northeast 550 633 31,000  Level Moncton Center
01:50AM 49.1333 -64.6000 40° Northeast 560 644 31,000  Level Moncton Center
01:51AM 49.2500 -64.4500 40° Northeast 550 633 31,000  Level Moncton Center
01:52AM 49.3667 -64.3167 37° Northeast 550 633 31,000  Level Moncton Center
01:53AM 49.4833 -64.1333 46° Northeast 550 633 31,000  Level Moncton Center
01:54AM 49.6000 -64.0167 33° Northeast 550 633 31,000  Level Moncton Center
01:55AM 49.7333 -63.8500 39° Northeast 560 644 31,000  Level Moncton Center
01:56AM 49.8500 -63.7000 40° Northeast 550 633 31,000  Level Moncton Center
01:57AM 49.9667 -63.5333 43° Northeast 550 633 31,000  Level Moncton Center
01:58AM 50.0833 -63.3833 39° Northeast 550 633 31,000  Level Moncton Center
01:59AM 50.2000 -63.2167 42° Northeast 550 633 31,000  Level Moncton Center
02:00AM 50.3167 -63.0667 39° Northeast 550 633 31,000  Level Moncton Center
02:01AM 50.4333 -62.9000 42° Northeast 540 621 31,000  Level Moncton Center
02:02AM 50.5500 -62.7667 36° Northeast 540 621 31,000  Level Moncton Center
02:03AM 50.6667 -62.6000 42° Northeast 540 621 31,000  Level Moncton Center
02:04AM 50.7667 -62.4333 46° Northeast 550 633 31,000  Level Moncton Center
02:05AM 50.8833 -62.2667 42° Northeast 540 621 31,000  Level Moncton Center
02:06AM 51.0167 -62.1167 35° Northeast 550 633 31,000  Level Moncton Center
02:07AM 51.1000 -61.9667 48° Northeast 550 633 31,000  Level Moncton Center
02:08AM 51.2333 -61.7833 41° Northeast 550 633 31,000  Level Moncton Center
02:09AM 51.3500 -61.6333 39° Northeast 550 633 31,000  Level Moncton Center
02:10AM 51.4667 -61.4500 44° Northeast 560 644 31,000  Level Moncton Center
02:11AM 51.5833 -61.3000 39° Northeast 560 644 31,000  Level Moncton Center
02:12AM 51.6833 -61.1333 46° Northeast 560 644 31,000  Level Moncton Center
02:13AM 51.8000 -60.9667 41° Northeast 560 644 31,000  Level Moncton Center
02:14AM 51.9167 -60.7833 44° Northeast 570 656 31,000  Level Moncton Center
02:15AM 52.0333 -60.5833 46° Northeast 570 656 31,000  Level Moncton Center
02:16AM 52.1500 -60.4500 35° Northeast 570 656 31,000  Level Moncton Center
02:17AM 52.2667 -60.2333 49° Northeast 570 656 31,000  Level Moncton Center
02:18AM 52.3833 -60.0667 41° Northeast 580 667 31,000  Level Moncton Center
02:19AM 52.4833 -59.8667 51° Northeast 580 667 31,000  Level Moncton Center
02:20AM 52.6000 -59.6667 46° Northeast 580 667 31,000  Level Moncton Center
02:21AM 52.7167 -59.4833 44° Northeast 580 667 31,000  Level Moncton Center
02:22AM 52.8167 -59.2833 50° Northeast 580 667 31,000  Level Moncton Center
02:23AM 52.9167 -59.1000 48° Northeast 580 667 31,000  Level Moncton Center
02:24AM 53.0333 -58.8833 48° Northeast 580 667 31,000  Level Moncton Center
02:25AM 53.1333 -58.6833 50° Northeast 580 667 31,000  Level Moncton Center
02:26AM 53.2667 -58.4667 44° Northeast 580 667 31,000  Level Moncton Center
02:27AM 53.3500 -58.2833 53° Northeast 580 667 31,000  Level Moncton Center
02:28AM 53.4833 -58.0667 44° Northeast 590 679 31,000  Level Moncton Center
02:29AM 53.5833 -57.8833 47° Northeast 590 679 31,000  Level Moncton Center
02:30AM 53.6833 -57.6500 54° Northeast 590 679 31,000  Level Moncton Center
02:31AM 53.8000 -57.4667 43° Northeast 590 679 31,000  Level Moncton Center
02:32AM 53.9000 -57.2500 52° Northeast 590 679 31,000  Level Moncton Center
02:33AM 54.0000 -57.0333 52° Northeast 590 679 31,000  Level Moncton Center
02:34AM 54.1167 -56.8333 45° Northeast 590 679 31,000  Level Moncton Center
02:35AM 54.2333 -56.6167 47° Northeast 600 690 31,000  Level Moncton Center
02:36AM 54.3333 -56.4000 52° Northeast 590 679 31,000  Level Moncton Center
02:37AM 54.4333 -56.1667 54° Northeast 600 690 31,000  Level Moncton Center
02:38AM 54.5500 -55.9500 47° Northeast 600 690 31,000  Level Moncton Center
02:39AM 54.6500 -55.7000 55° Northeast 610 702 31,000  Level Moncton Center
02:40AM 54.7167 -55.4500 65° Northeast 620 713 31,000  Level Moncton Center
02:41AM 54.7833 -55.1667 68° East 620 713 31,000  Level Moncton Center
02:42AM 54.8500 -54.9000 66° East 620 713 31,000  Level Moncton Center
02:43AM 54.9167 -54.6500 65° Northeast 620 713 31,000  Level Moncton Center
02:44AM 55.0000 -54.3333 65° Northeast 620 713 31,000  Level Moncton Center
02:45AM 55.0500 -54.0833 71° East 620 713 31,000  Level Moncton Center
02:46AM 55.1333 -53.8000 63° Northeast 620 713 31,000  Level Moncton Center
02:47AM 55.2000 -53.4833 70° East 630 725 31,000  Level Gander Center
02:48AM 55.2667 -53.2000 67° East 630 725 31,000  Level Gander Center
02:49AM 55.3333 -52.9333 66° East 630 725 31,000  Level Gander Center
02:50AM 55.4000 -52.6500 67° East 630 725 31,000  Level Gander Center
02:51AM 55.4667 -52.3667 67° East 630 725 31,000  Level Gander Center
02:52AM 55.5333 -52.0500 69° East 630 725 31,000  Level Gander Center
02:53AM 55.5833 -51.7833 72° East 630 725 31,000  Level Gander Center
02:55AM 55.6821 -51.3737 67° East  Level FlightAware Approximate
03:02AM 56.0989 -49.6015 66° East  Level FlightAware Approximate
03:03AM 56.1608 -49.3485 66° East  Level FlightAware Approximate
03:04AM 56.2222 -49.0948 66° East  Level FlightAware Approximate
03:05AM 56.2830 -48.8402 67° East  Level FlightAware Approximate
03:06AM 56.3433 -48.5848 67° East  Level FlightAware Approximate
03:07AM 56.4031 -48.3286 67° East  Level FlightAware Approximate
03:08AM 56.4624 -48.0715 67° East  Level FlightAware Approximate
03:09AM 56.5211 -47.8137 67° East  Level FlightAware Approximate
03:10AM 56.5793 -47.5551 68° East  Level FlightAware Approximate
03:11AM 56.6370 -47.2957 68° East  Level FlightAware Approximate
03:12AM 56.6941 -47.0355 68° East  Level FlightAware Approximate
03:13AM 56.7506 -46.7746 68° East  Level FlightAware Approximate
03:14AM 56.8067 -46.5128 69° East  Level FlightAware Approximate
03:15AM 56.8621 -46.2503 69° East  Level FlightAware Approximate
03:16AM 56.9170 -45.9869 69° East  Level FlightAware Approximate
03:17AM 56.9714 -45.7229 69° East  Level FlightAware Approximate
03:18AM 57.0252 -45.4580 69° East  Level FlightAware Approximate
03:19AM 57.0785 -45.1924 70° East  Level FlightAware Approximate
03:20AM 57.1312 -44.9260 70° East  Level FlightAware Approximate
03:21AM 57.1833 -44.6589 70° East  Level FlightAware Approximate
03:22AM 57.2348 -44.3910 70° East  Level FlightAware Approximate
03:23AM 57.2858 -44.1223 71° East  Level FlightAware Approximate
03:24AM 57.3362 -43.8530 71° East  Level FlightAware Approximate
03:25AM 57.3860 -43.5829 71° East  Level FlightAware Approximate
03:26AM 57.4353 -43.3120 71° East  Level FlightAware Approximate
03:27AM 57.4840 -43.0405 71° East  Level FlightAware Approximate
03:28AM 57.5331 -42.7688 71° East  Level FlightAware Approximate
03:29AM 57.5822 -42.4968 71° East  Level FlightAware Approximate
03:30AM 57.6307 -42.2241 72° East  Level FlightAware Approximate
03:31AM 57.6786 -41.9506 72° East  Level FlightAware Approximate
03:32AM 57.7260 -41.6764 72° East  Level FlightAware Approximate
03:33AM 57.7727 -41.4015 72° East  Level FlightAware Approximate
03:34AM 57.8189 -41.1259 72° East  Level FlightAware Approximate
03:35AM 57.8644 -40.8495 73° East  Level FlightAware Approximate
03:36AM 57.9094 -40.5725 73° East  Level FlightAware Approximate
03:37AM 57.9537 -40.2948 73° East  Level FlightAware Approximate
03:38AM 57.9974 -40.0164 73° East  Level FlightAware Approximate
03:39AM 58.0824 -39.7748 55° Northeast  Level FlightAware Approximate
03:40AM 58.1695 -39.5344 55° Northeast  Level FlightAware Approximate
03:41AM 58.2561 -39.2928 56° Northeast  Level FlightAware Approximate
03:42AM 58.3423 -39.0500 56° Northeast  Level FlightAware Approximate
03:43AM 58.4281 -38.8060 56° Northeast  Level FlightAware Approximate
03:44AM 58.5133 -38.5608 56° Northeast  Level FlightAware Approximate
03:45AM 58.5981 -38.3145 56° Northeast  Level FlightAware Approximate
03:46AM 58.6824 -38.0669 57° Northeast  Level FlightAware Approximate
03:47AM 58.7663 -37.8182 57° Northeast  Level FlightAware Approximate
03:48AM 58.8496 -37.5683 57° Northeast  Level FlightAware Approximate
03:49AM 58.9325 -37.3171 57° Northeast  Level FlightAware Approximate
03:50AM 59.0149 -37.0648 58° Northeast  Level FlightAware Approximate
03:51AM 59.0968 -36.8112 58° Northeast  Level FlightAware Approximate
03:52AM 59.1782 -36.5564 58° Northeast  Level FlightAware Approximate
03:53AM 59.2591 -36.3005 58° Northeast  Level FlightAware Approximate
03:54AM 59.3395 -36.0433 58° Northeast  Level FlightAware Approximate
03:55AM 59.4193 -35.7849 59° Northeast  Level FlightAware Approximate
03:56AM 59.4987 -35.5252 59° Northeast  Level FlightAware Approximate
03:57AM 59.5776 -35.2644 59° Northeast  Level FlightAware Approximate
03:58AM 59.6559 -35.0023 59° Northeast  Level FlightAware Approximate
03:59AM 59.7337 -34.7390 60° Northeast  Level FlightAware Approximate
04:00AM 59.8110 -34.4745 60° Northeast  Level FlightAware Approximate
04:01AM 59.8877 -34.2088 60° Northeast  Level FlightAware Approximate
04:02AM 59.9639 -33.9418 60° Northeast  Level FlightAware Approximate
04:03AM 60.0396 -33.6736 60° Northeast  Level FlightAware Approximate
04:04AM 60.1147 -33.4042 61° Northeast  Level FlightAware Approximate
04:05AM 60.1893 -33.1335 61° Northeast  Level FlightAware Approximate
04:06AM 60.2638 -32.8621 61° Northeast  Level FlightAware Approximate
04:07AM 60.3379 -32.5898 61° Northeast  Level FlightAware Approximate
04:08AM 60.4116 -32.3162 61° Northeast  Level FlightAware Approximate
04:09AM 60.4846 -32.0415 62° Northeast  Level FlightAware Approximate
04:10AM 60.5571 -31.7654 62° Northeast  Level FlightAware Approximate
04:11AM 60.6290 -31.4882 62° Northeast  Level FlightAware Approximate
04:12AM 60.7004 -31.2097 62° Northeast  Level FlightAware Approximate
04:13AM 60.7711 -30.9299 63° Northeast  Level FlightAware Approximate
04:14AM 60.8413 -30.6490 63° Northeast  Level FlightAware Approximate
04:14AM 61.2240 -28.3280 63° Northeast 603 694 33,000  Level FlightAware
04:15AM 60.9109 -30.3668 63° Northeast  Level FlightAware Approximate
04:15AM 61.2460 -28.1490 76° East 603 694 33,000  Level FlightAware
04:16AM 61.2690 -27.9650 75° East 604 695 33,000  Level FlightAware
04:16AM 61.2950 -27.7610 75° East 604 695 33,000  Level FlightAware
04:17AM 61.3170 -27.5940 75° East 604 695 33,000  Level FlightAware
04:18AM 61.3480 -27.3150 77° East 608 700 33,000  Level FlightAware
04:18AM 61.3690 -27.1360 76° East 608 700 33,000  Level FlightAware
04:19AM 61.4010 -26.8570 76° East 616 709 33,000  Level FlightAware
04:19AM 61.4220 -26.6710 77° East 616 709 33,000  Level FlightAware
04:20AM 61.4460 -26.4560 77° East 616 709 33,000  Level FlightAware
04:20AM 61.4680 -26.2630 76° East 615 708 33,000  Level FlightAware
04:21AM 61.4900 -26.0540 77° East 614 707 33,000  Level FlightAware
04:22AM 61.5080 -25.8930 77° East 614 707 33,000 60 Level FlightAware
04:22AM 61.5340 -25.6420 78° East 614 707 33,100 240 Climbing FlightAware
04:23AM 61.5590 -25.4150 77° East 613 705 33,400 1,140 Climbing FlightAware
04:23AM 61.5770 -25.2250 79° East 610 702 34,500 1,500 Climbing FlightAware
04:24AM 61.5990 -25.0110 78° East 610 702 35,100 480 Climbing FlightAware
04:25AM 61.6180 -24.8120 79° East 613 705 35,100 -120 Level FlightAware
04:25AM 61.6390 -24.5980 78° East 609 701 35,000 -120 Descending FlightAware
04:26AM 61.6570 -24.4120 78° East 607 699 35,000  Level FlightAware
04:26AM 61.6760 -24.2120 79° East 605 696 35,000  Level FlightAware
04:27AM 61.6960 -23.9910 79° East 604 695 35,000  Level FlightAware
04:28AM 61.7130 -23.8010 79° East 602 693 35,000  Level FlightAware
04:28AM 61.7320 -23.5950 79° East 602 693 35,000 60 Level FlightAware
04:29AM 61.7530 -23.3490 80° East 603 694 35,100  Climbing FlightAware
04:29AM 61.7720 -23.1330 79° East 605 696 35,000 -120 Descending FlightAware
04:30AM 61.7850 -22.9820 80° East 605 696 35,000  Level FlightAware
04:31AM 61.8050 -22.7370 80° East 606 697 35,000 60 Level FlightAware
04:31AM 61.8240 -22.5010 80° East 606 697 35,100  Climbing FlightAware
04:32AM 61.8400 -22.3040 80° East 607 699 35,000  Descending FlightAware
04:32AM 61.8570 -22.0830 81° East 607 699 35,100 60 Climbing FlightAware
04:33AM 61.8710 -21.8950 81° East 608 700 35,100 -120 Level FlightAware
04:34AM 61.8870 -21.6800 81° East 608 700 35,000 -120 Descending FlightAware
04:34AM 61.9030 -21.4620 81° East 608 700 35,000  Level FlightAware
04:35AM 61.9160 -21.2820 81° East 609 701 35,000  Level FlightAware
04:36AM 61.9360 -20.9880 82° East 609 701 35,000 60 Level FlightAware
04:36AM 61.9490 -20.8040 81° East 609 701 35,100  Climbing FlightAware
04:37AM 61.9620 -20.5960 82° East 609 701 35,000 -120 Descending FlightAware
04:37AM 61.9750 -20.4050 82° East 610 702 35,000  Level FlightAware
04:38AM 61.9900 -20.1690 82° East 610 702 35,000 60 Level FlightAware
04:38AM 62.0020 -19.9750 82° East 610 702 35,100 60 Climbing FlightAware
04:39AM 62.0090 -19.8130 85° East 610 702 35,100 -120 Level FlightAware
04:40AM 62.0160 -19.5600 87° East 611 703 35,000 -120 Descending FlightAware
04:40AM 62.0220 -19.3550 86° East 612 704 35,000  Level FlightAware
04:41AM 62.0280 -19.1260 87° East 613 705 35,000  Level FlightAware
04:41AM 62.0340 -18.9150 86° East 613 705 35,000 60 Level FlightAware
04:42AM 62.0390 -18.7510 86° East 614 707 35,100  Climbing FlightAware
04:42AM 62.0440 -18.5710 87° East 613 705 35,000 -120 Descending FlightAware
04:43AM 62.0500 -18.3370 87° East 614 707 35,000  Level FlightAware
04:44AM 62.0550 -18.1210 87° East 614 707 35,000 60 Level FlightAware
04:44AM 62.0610 -17.8630 87° East 614 707 35,100  Climbing FlightAware
04:45AM 62.0650 -17.6540 88° East 614 707 35,000 -120 Descending FlightAware
04:45AM 62.0690 -17.4510 88° East 615 708 35,000  Level FlightAware
04:46AM 62.0730 -17.2330 88° East 615 708 35,000 60 Level FlightAware
04:47AM 62.0760 -17.0490 88° East 615 708 35,100 60 Climbing FlightAware
04:47AM 62.0790 -16.8360 88° East 615 708 35,100 -120 Level FlightAware
04:48AM 62.0810 -16.6050 89° East 614 707 35,000  Descending FlightAware
04:48AM 62.0840 -16.4040 88° East 614 707 35,100  Climbing FlightAware
04:49AM 62.0860 -16.1850 89° East 614 707 35,000  Descending FlightAware
04:50AM 62.0870 -15.9780 89° East 614 707 35,100 60 Climbing FlightAware
04:50AM 62.0890 -15.7720 89° East 615 708 35,100  Level FlightAware
04:51AM 62.0900 -15.5410 89° East 615 708 35,100  Level FlightAware
04:51AM 62.0900 -15.3220 90° East 615 708 35,100  Level FlightAware
04:52AM 62.0910 -15.1280 89° East 615 708 35,100 -120 Level FlightAware
04:52AM 62.0910 -14.9160 90° East 615 708 35,000 -120 Descending FlightAware
04:53AM 62.0900 -14.6680 90° East 615 708 35,000 60 Level FlightAware
04:54AM 62.0900 -14.4620 90° East 615 708 35,100  Climbing FlightAware
04:54AM 62.0890 -14.2790 91° East 615 708 35,000 -120 Descending FlightAware
04:55AM 62.0880 -14.0640 90° East 615 708 35,000 60 Level FlightAware
04:55AM 62.0860 -13.8440 91° East 615 708 35,100  Climbing FlightAware
04:56AM 62.0840 -13.5890 91° East 616 709 35,000 -120 Descending FlightAware
04:57AM 62.0810 -13.3850 92° East 614 707 35,000 60 Level FlightAware
04:57AM 62.0790 -13.1900 91° East 614 707 35,100  Climbing FlightAware
04:58AM 62.0760 -12.9630 92° East 614 707 35,000 -120 Descending FlightAware
04:58AM 62.0730 -12.7690 92° East 614 707 35,000  Level FlightAware
04:59AM 62.0690 -12.5370 92° East 615 708 35,000  Level FlightAware
05:00AM 62.0650 -12.3450 92° East 616 709 35,000 60 Level FlightAware
05:00AM 62.0610 -12.1140 92° East 617 710 35,100 60 Climbing FlightAware
05:01AM 62.0560 -11.8980 93° East 618 711 35,100 -120 Level FlightAware
05:01AM 62.0510 -11.6900 93° East 618 711 35,000  Descending FlightAware
05:02AM 62.0460 -11.4830 93° East 619 712 35,100 60 Climbing FlightAware
05:02AM 62.0400 -11.2680 93° East 620 713 35,100  Level FlightAware
05:03AM 62.0340 -11.0540 93° East 621 715 35,100  Level FlightAware
05:04AM 62.0280 -10.8240 93° East 621 715 35,100  Level FlightAware
05:04AM 62.0210 -10.5960 94° East 622 716 35,100  Level FlightAware
05:05AM 62.0140 -10.3860 94° East 622 716 35,100 -120 Level FlightAware
05:06AM 62.0060 -10.1550 94° East 622 716 35,000  Descending FlightAware
05:06AM 61.9990 -9.9690 95° East 621 715 35,100  Climbing FlightAware
05:07AM 61.9880 -9.7450 96° East 624 718 35,000 -120 Descending FlightAware
05:07AM 61.9790 -9.5580 96° East 624 718 35,000  Level FlightAware
05:08AM 61.9700 -9.3760 96° East 624 718 35,000  Level FlightAware
05:09AM 61.9600 -9.1890 96° East 624 718 35,000  Level FlightAware
05:09AM 61.9510 -8.9920 95° East 624 718 35,000 60 Level FlightAware
05:09AM 61.9180 -8.7610 107° East 620 713 35,100 120 Climbing FlightAware
05:10AM 61.9030 -8.5410 98° East 617 710 35,100  Level FlightAware
05:11AM 61.8880 -8.3380 99° East 617 710 35,100  Level FlightAware
05:11AM 61.8780 -8.1970 98° East 617 710 35,100  Level FlightAware
05:12AM 61.8580 -7.9330 99° East 616 709 35,100  Level FlightAware
05:12AM 61.8400 -7.7050 99° East 617 710 35,100  Level FlightAware
05:13AM 61.8260 -7.5240 99° East 617 710 35,100 -120 Level FlightAware
05:13AM 61.8070 -7.2950 100° East 617 710 35,000  Descending FlightAware
05:14AM 61.7900 -7.0880 100° East 616 709 35,100 60 Climbing FlightAware
05:15AM 61.7730 -6.8850 100° East 616 709 35,100  Level FlightAware
05:15AM 61.7550 -6.6710 100° East 616 709 35,100  Level FlightAware
05:16AM 61.7380 -6.4700 100° East 618 711 35,100 -120 Level FlightAware
05:16AM 61.7190 -6.2590 101° East 618 711 35,000 -120 Descending FlightAware
05:17AM 61.7010 -6.0600 101° East 618 711 35,000 60 Level FlightAware
05:18AM 61.6810 -5.8480 101° East 618 711 35,100  Climbing FlightAware
05:18AM 61.6640 -5.6600 101° East 617 710 35,000  Descending FlightAware
05:19AM 61.6410 -5.4240 101° East 617 710 35,100  Climbing FlightAware
05:19AM 61.6220 -5.2230 101° East 616 709 35,000 -120 Descending FlightAware
05:20AM 61.6030 -5.0360 102° East 616 709 35,000 60 Level FlightAware
05:20AM 61.5840 -4.8410 101° East 616 709 35,100  Climbing FlightAware
05:21AM 61.5600 -4.6060 102° East 615 708 35,000  Descending FlightAware
05:22AM 61.5430 -4.4460 103° East 615 708 35,100  Climbing FlightAware
05:22AM 61.5190 -4.2100 102° East 615 708 35,000  Descending FlightAware
05:23AM 61.5030 -4.0600 103° East 615 708 35,100  Climbing FlightAware
05:23AM 61.4750 -3.8040 103° East 617 710 35,000 -120 Descending FlightAware
05:24AM 61.4520 -3.5960 103° East 617 710 35,000 60 Level FlightAware
05:25AM 61.4280 -3.3770 103° East 617 710 35,100 60 Climbing FlightAware
05:25AM 61.4040 -3.1690 103° East 617 710 35,100  Level FlightAware
05:26AM 61.3780 -2.9400 103° East 617 710 35,100  Level FlightAware
05:26AM 61.3590 -2.7780 104° East 616 709 35,100  Level FlightAware
05:27AM 61.3350 -2.5800 104° East 615 708 35,100 -120 Level FlightAware
05:28AM 61.3030 -2.3070 104° East 614 707 35,000 -120 Descending FlightAware
05:28AM 61.2840 -2.1570 105° East 613 705 35,000 60 Level FlightAware
05:29AM 61.2520 -1.8970 104° East 612 704 35,100  Climbing FlightAware
05:30AM 61.2310 -1.7190 104° East 611 703 35,000  Descending FlightAware
05:30AM 61.1990 -1.4750 105° East 610 702 35,100 60 Climbing FlightAware
05:31AM 61.1690 -1.2490 105° East 610 702 35,100 -120 Level FlightAware
05:31AM 61.1420 -1.0390 105° East 608 700 35,000 -120 Descending FlightAware
05:32AM 61.1170 -0.8510 105° East 608 700 35,000 60 Level FlightAware
05:33AM 61.0900 -0.6480 105° East 609 701 35,100  Climbing FlightAware
05:33AM 61.0560 -0.3960 105° East 609 701 35,000 -120 Descending FlightAware
05:34AM 61.0310 -0.2000 105° East 609 701 35,000  Level FlightAware
05:35AM 61.0060 -0.0140 105° East 609 701 35,000 60 Level FlightAware
05:35AM 60.9350 0.1960 125° Southeast 627 722 35,100 60 Climbing FlightAware
05:36AM 60.8790 0.3630 125° Southeast 628 723 35,100 -120 Level FlightAware
05:37AM 60.8040 0.5840 125° Southeast 623 717 35,000 -120 Descending FlightAware
05:37AM 60.7460 0.7520 125° Southeast 621 715 35,000  Level FlightAware
05:38AM 60.6870 0.9230 125° Southeast 621 715 35,000  Level FlightAware
05:38AM 60.6200 1.1140 126° Southeast 620 713 35,000  Level FlightAware
05:39AM 60.5630 1.2750 126° Southeast 619 712 35,000 60 Level FlightAware
05:40AM 60.4980 1.4350 129° Southeast 624 718 35,100  Climbing FlightAware
05:40AM 60.4240 1.5920 134° Southeast 617 710 35,000 -120 Descending FlightAware
05:41AM 60.3310 1.7660 137° Southeast 615 708 35,000  Level FlightAware
05:41AM 60.2600 1.8970 138° Southeast 614 707 35,000  Level FlightAware
05:42AM 60.1840 2.0380 137° Southeast 615 708 35,000  Level FlightAware
05:43AM 60.1088 2.1755 137° Southeast 500 575 35,000 120 Level FlightAware UK
05:43AM 60.1100 2.1720 137° Southeast 614 707 35,100  Climbing FlightAware
05:43AM 60.0470 2.2850 137° Southeast 613 705 35,000 -180 Descending FlightAware
05:43AM 60.0316 2.3142 137° Southeast 498 573 35,000  Level FlightAware UK
05:44AM 59.9680 2.4288 137° Southeast 500 575 35,000  Level FlightAware UK
05:44AM 59.9710 2.4220 137° Southeast 612 704 35,000  Level FlightAware
05:44AM 59.8860 2.5750 138° Southeast 613 705 35,000 60 Level FlightAware
05:45AM 59.8010 2.7240 139° Southeast 619 712 35,100  Climbing FlightAware
05:46AM 59.7250 2.8590 138° Southeast 619 712 35,000 -120 Descending FlightAware
05:46AM 59.6530 2.9860 138° Southeast 619 712 35,000 60 Level FlightAware
05:47AM 59.5820 3.1090 139° Southeast 619 712 35,100 60 Climbing FlightAware
05:47AM 59.4990 3.2530 139° Southeast 620 713 35,100 -120 Level FlightAware
05:48AM 59.4156 3.3981 139° Southeast 500 575 35,000 -180 Descending FlightAware UK
05:48AM 59.4160 3.3940 139° Southeast 619 712 35,000 180 Level FlightAware
05:49AM 59.3470 3.5130 139° Southeast 617 710 35,100  Climbing FlightAware
05:49AM 59.3389 3.5311 139° Southeast 502 578 35,000  Descending FlightAware UK
05:49AM 59.2700 3.6440 139° Southeast 616 709 35,100  Climbing FlightAware
05:50AM 59.2050 3.7540 139° Southeast 615 708 35,000  Descending FlightAware
05:50AM 59.1240 3.8900 139° Southeast 614 707 35,100  Climbing FlightAware
05:51AM 59.0529 4.0075 139° Southeast 500 575 35,000  Descending FlightAware UK
05:51AM 59.0410 4.0270 139° Southeast 612 704 35,100  Climbing FlightAware
05:51AM 58.9761 4.1368 139° Southeast 496 571 35,000  Descending FlightAware UK
05:51AM 58.9690 4.1480 139° Southeast 612 704 35,100  Climbing FlightAware
05:52AM 58.9000 4.2610 140° Southeast 612 704 35,000 -120 Descending FlightAware
05:53AM 58.8260 4.3810 140° Southeast 613 705 35,000  Level FlightAware
05:53AM 58.8084 4.4129 140° Southeast 494 568 35,000 120 Level FlightAware UK
05:53AM 58.7520 4.5020 140° Southeast 612 704 35,100  Climbing FlightAware
05:54AM 58.6720 4.6320 140° Southeast 612 704 35,000  Descending FlightAware
05:54AM 58.5960 4.7540 140° Southeast 610 702 35,100  Climbing FlightAware
05:55AM 58.5160 4.8820 140° Southeast 608 700 35,000  Descending FlightAware
05:56AM 58.4470 4.9950 139° Southeast 605 696 35,100  Climbing FlightAware
05:56AM 58.3750 5.1110 140° Southeast 603 694 35,000  Descending FlightAware
05:57AM 58.2990 5.2360 139° Southeast 603 694 35,100 60 Climbing FlightAware
05:57AM 58.2230 5.3570 140° Southeast 602 693 35,100  Level FlightAware
05:58AM 58.1500 5.4750 140° Southeast 601 692 35,100  Level FlightAware
05:58AM 58.0770 5.5790 143° Southeast 604 695 35,100  Level FlightAware
05:59AM 57.9830 5.6730 152° Southeast 599 689 35,100  Level FlightAware
06:00AM 57.9030 5.7510 153° Southeast 599 689 35,100  Level FlightAware
06:00AM 57.8090 5.8470 151° Southeast 598 688 35,100 -120 Level FlightAware
06:01AM 57.7260 5.9330 151° Southeast 598 688 35,000  Descending FlightAware
06:01AM 57.6350 6.0280 151° Southeast 597 687 35,100  Climbing FlightAware
06:02AM 57.5480 6.1190 151° Southeast 597 687 35,000 -120 Descending FlightAware
06:03AM 57.4740 6.1950 151° Southeast 597 687 35,000  Level FlightAware
06:03AM 57.3830 6.2900 151° Southeast 597 687 35,000 60 Level FlightAware
06:04AM 57.3030 6.3730 151° Southeast 596 686 35,100 60 Climbing FlightAware
06:04AM 57.2150 6.4610 152° Southeast 595 685 35,100 -120 Level FlightAware
06:05AM 57.1480 6.5460 145° Southeast 592 681 35,000  Descending FlightAware
06:05AM 57.0750 6.6590 140° Southeast 589 678 35,100 60 Climbing FlightAware
06:06AM 57.0080 6.7620 140° Southeast 588 677 35,100  Level FlightAware
06:07AM 56.9190 6.8920 141° Southeast 586 674 35,100  Level FlightAware
06:07AM 56.8420 7.0060 141° Southeast 583 671 35,100  Level FlightAware
06:08AM 56.7700 7.1150 140° Southeast 581 669 35,100  Level FlightAware
06:08AM 56.7030 7.2160 140° Southeast 582 670 35,100  Level FlightAware
06:09AM 56.6300 7.3230 141° Southeast 581 669 35,100  Level FlightAware
06:10AM 56.5540 7.4330 141° Southeast 581 669 35,100  Level FlightAware
06:10AM 56.4850 7.5330 141° Southeast 581 669 35,100  Level FlightAware
06:10AM 56.4520 7.5810 141° Southeast 582 670 35,100  Level FlightAware
06:11AM 56.3540 7.7220 141° Southeast 582 670 35,100  Level FlightAware
06:12AM 56.2750 7.8370 141° Southeast 582 670 35,100  Level FlightAware
06:12AM 56.2000 7.9440 142° Southeast 582 670 35,100  Level FlightAware
06:13AM 56.1200 8.0580 142° Southeast 581 669 35,100  Level FlightAware
06:14AM 56.0590 8.1450 141° Southeast 580 667 35,100  Level FlightAware
06:14AM 55.9790 8.2570 142° Southeast 579 666 35,100  Level FlightAware
06:15AM 55.9040 8.3640 141° Southeast 579 666 35,100  Level FlightAware
06:15AM 55.8230 8.4770 142° Southeast 578 665 35,100  Level FlightAware
06:16AM 55.7680 8.5530 142° Southeast 578 665 35,100 -120 Level FlightAware
06:17AM 55.6770 8.6790 142° Southeast 578 665 35,000  Descending FlightAware
06:17AM 55.6050 8.7790 142° Southeast 577 664 35,100 60 Climbing FlightAware
06:18AM 55.5550 8.8480 142° Southeast 578 665 35,100  Level FlightAware
06:18AM 55.4470 8.9950 142° Southeast 577 664 35,100  Level FlightAware
06:19AM 55.3650 9.1070 142° Southeast 577 664 35,100  Level FlightAware
06:20AM 55.2900 9.2080 143° Southeast 577 664 35,100  Level FlightAware
06:20AM 55.2300 9.2880 143° Southeast 576 663 35,100  Level FlightAware
06:21AM 55.1370 9.4120 143° Southeast 576 663 35,100  Level FlightAware
06:21AM 55.0600 9.5150 143° Southeast 575 662 35,100  Level FlightAware
06:22AM 54.9970 9.5990 143° Southeast 576 663 35,100  Level FlightAware
06:23AM 54.9130 9.7100 143° Southeast 576 663 35,100  Level FlightAware
06:23AM 54.8420 9.8030 143° Southeast 576 663 35,100  Level FlightAware
06:24AM 54.7590 9.9100 143° Southeast 577 664 35,100 -120 Level FlightAware
06:24AM 54.6960 9.9930 143° Southeast 577 664 35,000  Descending FlightAware
06:25AM 54.6030 10.1130 143° Southeast 577 664 35,100 60 Climbing FlightAware
06:26AM 54.5200 10.2190 143° Southeast 576 663 35,100  Level FlightAware
06:26AM 54.4470 10.3120 143° Southeast 576 663 35,100  Level FlightAware
06:27AM 54.3820 10.3950 143° Southeast 576 663 35,100  Level FlightAware
06:27AM 54.3070 10.4900 144° Southeast 574 661 35,100 -120 Level FlightAware
06:28AM 54.2260 10.5920 144° Southeast 575 662 35,000  Descending FlightAware
06:28AM 54.1730 10.6590 143° Southeast 574 661 35,100 60 Climbing FlightAware
06:29AM 54.0780 10.7790 143° Southeast 573 659 35,100  Level FlightAware
06:30AM 54.0060 10.8680 144° Southeast 573 659 35,100 -120 Level FlightAware
06:30AM 53.9400 10.9500 144° Southeast 571 657 35,000  Descending FlightAware
06:31AM 53.8500 11.0610 144° Southeast 570 656 35,100 60 Climbing FlightAware
06:31AM 53.7820 11.1440 144° Southeast 569 655 35,100  Level FlightAware
06:32AM 53.6880 11.2590 144° Southeast 567 652 35,100  Level FlightAware
06:33AM 53.6210 11.3410 144° Southeast 565 650 35,100  Level FlightAware
06:33AM 53.5510 11.4260 144° Southeast 564 649 35,100  Level FlightAware
06:34AM 53.4710 11.5220 144° Southeast 561 646 35,100  Level FlightAware
06:35AM 53.3870 11.6220 145° Southeast 558 642 35,100  Level FlightAware
06:35AM 53.3090 11.7160 144° Southeast 556 640 35,100  Level FlightAware
06:36AM 53.2540 11.7810 145° Southeast 553 636 35,100  Level FlightAware
06:36AM 53.1600 11.8920 145° Southeast 549 632 35,100 -120 Level FlightAware
06:37AM 53.0870 11.9780 145° Southeast 546 628 35,000  Descending FlightAware
06:38AM 53.0180 12.0590 145° Southeast 543 625 35,100 60 Climbing FlightAware
06:38AM 52.9530 12.1350 145° Southeast 541 623 35,100 -120 Level FlightAware
06:39AM 52.8710 12.2310 145° Southeast 538 619 35,000  Descending FlightAware
06:39AM 52.8040 12.3080 145° Southeast 536 617 35,100  Climbing FlightAware
06:40AM 52.7380 12.3850 145° Southeast 535 616 35,000  Descending FlightAware
06:40AM 52.6690 12.4640 145° Southeast 534 615 35,100 60 Climbing FlightAware
06:41AM 52.5930 12.5510 145° Southeast 533 613 35,100  Level FlightAware
06:42AM 52.5180 12.6360 145° Southeast 533 613 35,100  Level FlightAware
06:42AM 52.4530 12.7110 145° Southeast 532 612 35,100  Level FlightAware
06:43AM 52.3790 12.7940 146° Southeast 532 612 35,100  Level FlightAware
06:43AM 52.3000 12.8830 145° Southeast 532 612 35,100  Level FlightAware
06:44AM 52.2340 12.9570 146° Southeast 531 611 35,100  Level FlightAware
06:44AM 52.1680 13.0310 145° Southeast 530 610 35,100  Level FlightAware
06:45AM 52.0930 13.1150 145° Southeast 531 611 35,100  Level FlightAware
06:46AM 52.0320 13.1820 146° Southeast 531 611 35,100  Level FlightAware
06:46AM 51.9490 13.2740 146° Southeast 531 611 35,100  Level FlightAware
06:47AM 51.8860 13.3430 146° Southeast 530 610 35,100  Level FlightAware
06:47AM 51.8200 13.4160 146° Southeast 530 610 35,100  Level FlightAware
06:48AM 51.7680 13.4730 146° Southeast 530 610 35,100  Level FlightAware
06:48AM 51.6940 13.5530 146° Southeast 529 609 35,100  Level FlightAware
06:49AM 51.6250 13.6280 146° Southeast 530 610 35,100  Level FlightAware
06:50AM 51.5590 13.7000 146° Southeast 528 608 35,100  Level FlightAware
06:50AM 51.4790 13.7850 146° Southeast 526 605 35,100  Level FlightAware
06:51AM 51.3910 13.8800 146° Southeast 525 604 35,100  Level FlightAware
06:51AM 51.3210 13.9540 147° Southeast 524 603 35,100  Level FlightAware
06:52AM 51.2510 14.0290 146° Southeast 522 601 35,100  Level FlightAware
06:53AM 51.1860 14.0980 146° Southeast 521 600 35,100  Level FlightAware
06:53AM 51.1160 14.1720 146° Southeast 519 597 35,100 -120 Level FlightAware
06:54AM 51.0500 14.2530 142° Southeast 519 597 35,000  Descending FlightAware
06:54AM 50.9910 14.3350 139° Southeast 517 595 35,100  Climbing FlightAware
06:55AM 50.9230 14.4320 138° Southeast 514 592 35,000 -120 Descending FlightAware
06:55AM 50.8660 14.5130 138° Southeast 513 590 35,000 60 Level FlightAware
06:56AM 50.8010 14.6030 139° Southeast 512 589 35,100 60 Climbing FlightAware
06:57AM 50.7330 14.6970 139° Southeast 512 589 35,100  Level FlightAware
06:57AM 50.6860 14.7630 138° Southeast 511 588 35,100 -120 Level FlightAware
06:58AM 50.6250 14.8470 139° Southeast 511 588 35,000  Descending FlightAware
06:58AM 50.5500 14.9500 139° Southeast 510 587 35,100 60 Climbing FlightAware
06:59AM 50.4940 15.0260 139° Southeast 509 586 35,100  Level FlightAware
07:00AM 50.4290 15.1150 139° Southeast 509 586 35,100  Level FlightAware
07:00AM 50.3370 15.2390 139° Southeast 506 582 35,100 -120 Level FlightAware
07:01AM 50.2730 15.3260 139° Southeast 504 580 35,000 -120 Descending FlightAware
07:01AM 50.2320 15.3810 139° Southeast 502 578 35,000 60 Level FlightAware
07:02AM 50.1550 15.4850 139° Southeast 500 575 35,100 60 Climbing FlightAware
07:03AM 50.0910 15.5700 140° Southeast 499 574 35,100 -120 Level FlightAware
07:03AM 50.0400 15.6380 139° Southeast 500 575 35,000  Descending FlightAware
07:04AM 49.9610 15.7440 139° Southeast 500 575 35,100 60 Climbing FlightAware
07:05AM 49.9040 15.8200 139° Southeast 502 578 35,100  Level FlightAware
07:05AM 49.8430 15.9000 140° Southeast 502 578 35,100  Level FlightAware
07:06AM 49.7750 15.9900 139° Southeast 504 580 35,100  Level FlightAware
07:06AM 49.7100 16.0740 140° Southeast 504 580 35,100  Level FlightAware
07:07AM 49.6510 16.1520 139° Southeast 504 580 35,100  Level FlightAware
07:08AM 49.5830 16.2390 140° Southeast 505 581 35,100  Level FlightAware
07:08AM 49.5240 16.3160 140° Southeast 507 583 35,100  Level FlightAware
07:09AM 49.4620 16.3960 140° Southeast 508 585 35,100 -120 Level FlightAware
07:09AM 49.4090 16.4650 140° Southeast 510 587 35,000  Descending FlightAware
07:10AM 49.3290 16.5680 140° Southeast 513 590 35,100 60 Climbing FlightAware
07:10AM 49.2720 16.6400 140° Southeast 513 590 35,100  Level FlightAware
07:11AM 49.1800 16.7570 140° Southeast 514 592 35,100  Level FlightAware
07:12AM 49.1340 16.8150 140° Southeast 516 594 35,100  Level FlightAware
07:12AM 49.0560 16.9120 141° Southeast 515 593 35,100  Level FlightAware
07:13AM 49.0240 16.9480 144° Southeast 515 593 35,100  Level FlightAware
07:14AM 48.9110 17.0700 145° Southeast 517 595 35,100  Level FlightAware
07:14AM 48.8530 17.1320 145° Southeast 517 595 35,100  Level FlightAware
07:15AM 48.7670 17.2270 144° Southeast 516 594 35,100  Level FlightAware
07:16AM 48.6850 17.3170 144° Southeast 514 592 35,100  Level FlightAware
07:16AM 48.6240 17.3840 144° Southeast 511 588 35,100  Level FlightAware
07:17AM 48.5570 17.4580 144° Southeast 509 586 35,100 540 Level FlightAware
07:17AM 48.4860 17.5350 144° Southeast 510 587 35,800 900 Climbing FlightAware
07:18AM 48.4250 17.6010 144° Southeast 510 587 36,300 900 Climbing FlightAware
07:19AM 48.3410 17.6910 145° Southeast 513 590 37,000 600 Climbing FlightAware
07:19AM 48.2670 17.7710 144° Southeast 513 590 37,100 60 Climbing FlightAware
07:20AM 48.2230 17.8180 145° Southeast 512 589 37,100  Level FlightAware
07:20AM 48.1370 17.9090 145° Southeast 511 588 37,100  Level FlightAware
07:21AM 48.0640 17.9870 144° Southeast 511 588 37,100  Level FlightAware
07:22AM 47.9930 18.0620 145° Southeast 510 587 37,100  Level FlightAware
07:22AM 47.9070 18.1520 145° Southeast 509 586 37,100  Level FlightAware
07:23AM 47.8460 18.2170 144° Southeast 510 587 37,100  Level FlightAware
07:23AM 47.7780 18.2850 146° Southeast 508 585 37,100  Level FlightAware
07:24AM 47.7160 18.3400 149° Southeast 505 581 37,100  Level FlightAware
07:25AM 47.6340 18.4140 149° Southeast 506 582 37,100  Level FlightAware
07:25AM 47.5630 18.4770 149° Southeast 507 583 37,100  Level FlightAware
07:26AM 47.5010 18.5340 148° Southeast 509 586 37,100  Level FlightAware
07:26AM 47.4230 18.6050 148° Southeast 510 587 37,100  Level FlightAware
07:27AM 47.3430 18.6780 148° Southeast 508 585 37,100  Level FlightAware
07:28AM 47.2920 18.7170 153° Southeast 499 574 37,100  Level FlightAware
07:28AM 47.1880 18.7910 154° Southeast 498 573 37,100  Level FlightAware
07:29AM 47.1160 18.8420 154° Southeast 498 573 37,100  Level FlightAware
07:29AM 47.0370 18.8980 154° Southeast 498 573 37,100  Level FlightAware
07:30AM 46.9650 18.9480 155° Southeast 498 573 37,100  Level FlightAware
07:31AM 46.8780 19.0080 155° Southeast 497 572 37,100 -120 Level FlightAware
07:31AM 46.8160 19.0520 154° Southeast 500 575 37,000 -120 Descending FlightAware
07:32AM 46.7610 19.1110 144° Southeast 510 587 37,000 60 Level FlightAware
07:32AM 46.6850 19.1930 143° Southeast 509 586 37,100 60 Climbing FlightAware
07:33AM 46.6180 19.2630 144° Southeast 508 585 37,100  Level FlightAware
07:33AM 46.5740 19.3090 144° Southeast 508 585 37,100  Level FlightAware
07:34AM 46.4870 19.3970 145° Southeast 508 585 37,100  Level FlightAware
07:35AM 46.4140 19.4690 146° Southeast 507 583 37,100  Level FlightAware
07:35AM 46.3490 19.5340 145° Southeast 507 583 37,100  Level FlightAware
07:36AM 46.2920 19.5910 145° Southeast 506 582 37,100  Level FlightAware
07:37AM 46.2010 19.6790 146° Southeast 497 572 37,100  Level FlightAware
07:37AM 46.1300 19.7360 151° Southeast 500 575 37,100  Level FlightAware
07:38AM 46.0260 19.8090 154° Southeast 500 575 37,100  Level FlightAware
07:39AM 45.9570 19.8580 154° Southeast 502 578 37,100  Level FlightAware
07:39AM 45.9040 19.8940 155° Southeast 502 578 37,100  Level FlightAware
07:40AM 45.8070 19.9620 154° Southeast 502 578 37,100  Level FlightAware
07:40AM 45.7210 20.0210 154° Southeast 501 577 37,100  Level FlightAware
07:41AM 45.6580 20.0650 154° Southeast 501 577 37,100  Level FlightAware
07:42AM 45.5970 20.1080 154° Southeast 501 577 37,100  Level FlightAware
07:42AM 45.4820 20.1870 154° Southeast 500 575 37,100  Level FlightAware
07:43AM 45.4130 20.2340 154° Southeast 500 575 37,100  Level FlightAware
07:43AM 45.3590 20.2710 154° Southeast 501 577 37,100  Level FlightAware
07:44AM 45.2840 20.3220 154° Southeast 501 577 37,100  Level FlightAware
07:45AM 45.1920 20.3850 154° Southeast 501 577 37,100  Level FlightAware
07:45AM 45.1260 20.4300 154° Southeast 502 578 37,100  Level FlightAware
07:46AM 45.0650 20.4710 155° Southeast 503 579 37,100  Level FlightAware
07:46AM 44.9800 20.5290 154° Southeast 496 571 37,100  Level FlightAware
07:47AM 44.9060 20.5790 154° Southeast 498 573 37,100  Level FlightAware
07:48AM 44.8260 20.6320 155° Southeast 506 582 37,100  Level FlightAware
07:48AM 44.7570 20.6780 155° Southeast 505 581 37,100  Level FlightAware
07:49AM 44.6640 20.7410 154° Southeast 507 583 37,100  Level FlightAware
07:49AM 44.5800 20.7960 155° Southeast 508 585 37,100  Level FlightAware
07:50AM 44.5140 20.8400 155° Southeast 507 583 37,100  Level FlightAware
07:51AM 44.4300 20.8960 155° Southeast 508 585 37,100  Level FlightAware
07:51AM 44.3600 20.9420 155° Southeast 508 585 37,100  Level FlightAware
07:52AM 44.3100 20.9750 155° Southeast 508 585 37,100  Level FlightAware
07:52AM 44.2270 21.0290 155° Southeast 508 585 37,100  Level FlightAware
07:53AM 44.1450 21.0830 155° Southeast 508 585 37,100  Level FlightAware
07:54AM 44.0640 21.1360 155° Southeast 508 585 37,100  Level FlightAware
07:54AM 44.0000 21.1780 155° Southeast 508 585 37,100  Level FlightAware
07:55AM 43.9090 21.2360 155° Southeast 507 583 37,100  Level FlightAware
07:55AM 43.8400 21.2810 155° Southeast 506 582 37,100  Level FlightAware
07:56AM 43.7590 21.3330 155° Southeast 507 583 37,100  Level FlightAware
07:56AM 43.6970 21.3730 155° Southeast 507 583 37,100  Level FlightAware
07:57AM 43.6200 21.4230 155° Southeast 508 585 37,100  Level FlightAware
07:58AM 43.5330 21.4780 155° Southeast 507 583 37,100  Level FlightAware
07:58AM 43.4730 21.5170 155° Southeast 506 582 37,100  Level FlightAware
07:59AM 43.3910 21.5680 156° South 505 581 37,100  Level FlightAware
07:59AM 43.3190 21.6140 155° Southeast 504 580 37,100  Level FlightAware
08:00AM 43.2410 21.6630 155° Southeast 504 580 37,100  Level FlightAware
08:01AM 43.1640 21.7120 155° Southeast 504 580 37,100  Level FlightAware
08:01AM 43.1090 21.7460 156° South 503 579 37,100  Level FlightAware
08:02AM 43.0260 21.7990 155° Southeast 504 580 37,100  Level FlightAware
08:02AM 42.9790 21.8280 156° South 503 579 37,100  Level FlightAware
08:03AM 42.8900 21.8840 155° Southeast 505 581 37,100  Level FlightAware
08:03AM 42.8080 21.9350 155° Southeast 505 581 37,100  Level FlightAware
08:04AM 42.7400 21.9770 156° South 505 581 37,100  Level FlightAware
08:04AM 42.6700 22.0210 155° Southeast 506 582 37,100  Level FlightAware
08:05AM 42.5920 22.0690 156° South 506 582 37,100  Level FlightAware
08:06AM 42.5130 22.1140 157° South 504 580 37,100  Level FlightAware
08:06AM 42.4330 22.1510 161° South 506 582 37,100  Level FlightAware
08:07AM 42.3530 22.1890 161° South 506 582 37,100  Level FlightAware
08:07AM 42.2790 22.2240 161° South 507 583 37,100  Level FlightAware
08:08AM 42.2080 22.2580 160° South 507 583 37,100  Level FlightAware
08:09AM 42.1270 22.2970 160° South 507 583 37,100  Level FlightAware
08:09AM 42.0570 22.3290 161° South 508 585 37,100  Level FlightAware
08:10AM 41.9730 22.3690 161° South 509 586 37,100  Level FlightAware
08:10AM 41.8970 22.4040 161° South 510 587 37,100  Level FlightAware
08:11AM 41.8400 22.4310 161° South 510 587 37,100  Level FlightAware
08:12AM 41.7410 22.4770 161° South 508 585 37,100  Level FlightAware
08:12AM 41.6630 22.5130 161° South 508 585 37,100 -120 Level FlightAware
08:13AM 41.5640 22.5590 161° South 506 582 37,000 -120 Descending FlightAware
08:13AM 41.4830 22.5960 161° South 505 581 37,000 60 Level FlightAware
08:14AM 41.4160 22.6260 161° South 505 581 37,100  Climbing FlightAware
08:15AM 41.3280 22.6670 161° South 505 581 37,000  Descending FlightAware
08:15AM 41.2610 22.6970 161° South 506 582 37,100 60 Climbing FlightAware
08:16AM 41.1950 22.7280 161° South 507 583 37,100  Level FlightAware
08:16AM 41.1010 22.7700 161° South 508 585 37,100 -120 Level FlightAware
08:17AM 41.0210 22.8090 160° South 514 592 37,000  Descending FlightAware
08:18AM 40.9430 22.8660 151° Southeast 520 598 37,100 60 Climbing FlightAware
08:18AM 40.8800 22.9140 150° Southeast 521 600 37,100  Level FlightAware
08:19AM 40.8070 22.9660 152° Southeast 523 602 37,100  Level FlightAware
08:19AM 40.7240 23.0240 152° Southeast 523 602 37,100  Level FlightAware
08:20AM 40.6700 23.0610 153° Southeast 522 601 37,100  Level FlightAware
08:21AM 40.5670 23.1310 153° Southeast 520 598 37,100  Level FlightAware
08:21AM 40.4910 23.1830 153° Southeast 511 588 37,100  Level FlightAware
08:22AM 40.4280 23.2270 152° Southeast 510 587 37,100  Level FlightAware
08:22AM 40.3340 23.2940 151° Southeast 514 592 37,100  Level FlightAware
08:23AM 40.2800 23.3330 151° Southeast 512 589 37,100 -120 Level FlightAware
08:23AM 40.1970 23.3920 151° Southeast 511 588 37,000  Descending FlightAware
08:24AM 40.1230 23.4450 151° Southeast 511 588 37,100  Climbing FlightAware
08:25AM 40.0620 23.4880 152° Southeast 510 587 37,000  Descending FlightAware
08:25AM 39.9680 23.5530 152° Southeast 511 588 37,100 60 Climbing FlightAware
08:26AM 39.8960 23.6040 151° Southeast 511 588 37,100 -120 Level FlightAware
08:26AM 39.8220 23.6550 152° Southeast 512 589 37,000  Descending FlightAware
08:27AM 39.7490 23.7060 152° Southeast 515 593 37,100 60 Climbing FlightAware
08:28AM 39.6750 23.7580 152° Southeast 510 587 37,100  Level FlightAware
08:28AM 39.5800 23.8240 152° Southeast 510 587 37,100  Level FlightAware
08:29AM 39.5060 23.8750 152° Southeast 510 587 37,100 -120 Level FlightAware
08:29AM 39.4330 23.9250 152° Southeast 514 592 37,000  Descending FlightAware
08:30AM 39.3590 23.9770 151° Southeast 514 592 37,100 60 Climbing FlightAware
08:31AM 39.2870 24.0260 152° Southeast 513 590 37,100  Level FlightAware
08:31AM 39.2150 24.0750 152° Southeast 511 588 37,100  Level FlightAware
08:32AM 39.1400 24.1260 152° Southeast 509 586 37,100  Level FlightAware
08:32AM 39.0700 24.1750 151° Southeast 510 587 37,100  Level FlightAware
08:33AM 38.9720 24.2410 152° Southeast 509 586 37,100  Level FlightAware
08:34AM 38.8880 24.2980 152° Southeast 509 586 37,100  Level FlightAware
08:35AM 38.7970 24.3590 152° Southeast 512 589 37,100 -120 Level FlightAware
08:35AM 38.7260 24.4070 152° Southeast 513 590 37,000  Descending FlightAware
08:36AM 38.6470 24.4600 152° Southeast 513 590 37,100 60 Climbing FlightAware
08:37AM 38.5510 24.5250 152° Southeast 512 589 37,100  Level FlightAware
08:37AM 38.4750 24.5760 152° Southeast 511 588 37,100  Level FlightAware
08:38AM 38.4010 24.6250 153° Southeast 511 588 37,100 -120 Level FlightAware
08:38AM 38.3380 24.6680 152° Southeast 513 590 37,000  Descending FlightAware
08:39AM 38.2640 24.7360 144° Southeast 530 610 37,100 60 Climbing FlightAware
08:39AM 38.2060 24.8230 130° Southeast 547 629 37,100  Level FlightAware
08:40AM 38.1660 24.9070 121° Southeast 551 634 37,100  Level FlightAware
08:41AM 38.1200 25.0080 120° Southeast 553 636 37,100  Level FlightAware
08:41AM 38.0770 25.1010 120° Southeast 554 638 37,100  Level FlightAware
08:42AM 38.0270 25.2030 122° Southeast 553 636 37,100 -120 Level FlightAware
08:42AM 37.9720 25.3040 125° Southeast 552 635 37,000  Descending FlightAware
08:43AM 37.9300 25.3810 125° Southeast 553 636 37,100 60 Climbing FlightAware
08:43AM 37.8820 25.4670 125° Southeast 555 639 37,100  Level FlightAware
08:44AM 37.8180 25.5850 124° Southeast 554 638 37,100  Level FlightAware
08:45AM 37.7700 25.6680 126° Southeast 554 638 37,100  Level FlightAware
08:45AM 37.7190 25.7600 125° Southeast 553 636 37,100  Level FlightAware
08:46AM 37.6570 25.8710 125° Southeast 552 635 37,100  Level FlightAware
08:46AM 37.6150 25.9460 125° Southeast 553 636 37,100  Level FlightAware
08:47AM 37.5570 26.0500 125° Southeast 553 636 37,100  Level FlightAware
08:48AM 37.5060 26.1390 126° Southeast 551 634 37,100  Level FlightAware
08:48AM 37.4710 26.2020 125° Southeast 551 634 37,100  Level FlightAware
08:49AM 37.4090 26.3110 126° Southeast 550 633 37,100  Level FlightAware
08:49AM 37.3570 26.4020 126° Southeast 551 634 37,100  Level FlightAware
08:50AM 37.3120 26.4820 125° Southeast 550 633 37,100  Level FlightAware
08:50AM 37.2520 26.5880 125° Southeast 548 631 37,100  Level FlightAware
08:51AM 37.1940 26.6880 126° Southeast 547 629 37,100  Level FlightAware
08:52AM 37.1430 26.7780 125° Southeast 546 628 37,100  Level FlightAware
08:52AM 37.1070 26.8400 126° Southeast 545 627 37,100  Level FlightAware
08:53AM 37.0470 26.9440 126° Southeast 545 627 37,100  Level FlightAware
08:53AM 36.9890 27.0440 126° Southeast 543 625 37,100  Level FlightAware
08:54AM 36.9360 27.1350 126° Southeast 543 625 37,100  Level FlightAware
08:55AM 36.8840 27.2250 126° Southeast 543 625 37,100  Level FlightAware
08:55AM 36.8140 27.3470 126° Southeast 543 625 37,100  Level FlightAware
08:56AM 36.7640 27.4370 125° Southeast 543 625 37,100  Level FlightAware
08:57AM 36.7000 27.5390 128° Southeast 541 623 37,100  Level FlightAware
08:57AM 36.6610 27.6060 126° Southeast 541 623 37,100 -120 Level FlightAware
08:58AM 36.6020 27.7060 126° Southeast 538 619 37,000  Descending FlightAware
08:59AM 36.5380 27.8140 126° Southeast 540 621 37,100 60 Climbing FlightAware
08:59AM 36.4770 27.9170 126° Southeast 539 620 37,100  Level FlightAware
09:00AM 36.4240 28.0070 126° Southeast 538 619 37,100  Level FlightAware
09:00AM 36.3790 28.0810 127° Southeast 537 618 37,100  Level FlightAware
09:01AM 36.3290 28.1640 127° Southeast 535 616 37,100  Level FlightAware
09:02AM 36.2710 28.2620 126° Southeast 529 609 37,100  Level FlightAware
09:02AM 36.2220 28.3430 127° Southeast 527 606 37,100  Level FlightAware
09:03AM 36.1740 28.4230 127° Southeast 524 603 37,100  Level FlightAware
09:03AM 36.1220 28.5090 127° Southeast 524 603 37,100  Level FlightAware
09:04AM 36.0620 28.6080 127° Southeast 528 608 37,100  Level FlightAware
09:04AM 36.0180 28.6800 127° Southeast 529 609 37,100  Level FlightAware
09:05AM 35.9550 28.7840 127° Southeast 530 610 37,100  Level FlightAware
09:06AM 35.9040 28.8690 127° Southeast 530 610 37,100  Level FlightAware
09:06AM 35.8400 28.9720 127° Southeast 532 612 37,100  Level FlightAware
09:07AM 35.7850 29.0650 126° Southeast 532 612 37,100  Level FlightAware
09:08AM 35.7300 29.1510 128° Southeast 532 612 37,100  Level FlightAware
09:08AM 35.6760 29.2390 127° Southeast 532 612 37,100  Level FlightAware
09:09AM 35.6250 29.3200 128° Southeast 532 612 37,100 -120 Level FlightAware
09:10AM 35.5590 29.4270 127° Southeast 531 611 37,000  Descending FlightAware
09:10AM 35.5090 29.5070 128° Southeast 533 613 37,100 60 Climbing FlightAware
09:11AM 35.4430 29.6140 127° Southeast 534 615 37,100  Level FlightAware
09:12AM 35.3780 29.7170 128° Southeast 535 616 37,100  Level FlightAware
09:12AM 35.3230 29.8060 127° Southeast 535 616 37,100  Level FlightAware
09:13AM 35.2480 29.9260 127° Southeast 535 616 37,100  Level FlightAware
09:14AM 35.1920 30.0130 128° Southeast 534 615 37,100  Level FlightAware
09:14AM 35.1310 30.1070 128° Southeast 527 606 37,100  Level FlightAware
09:15AM 35.0760 30.1900 129° Southeast 524 603 37,100  Level FlightAware
09:16AM 35.0240 30.2730 127° Southeast 525 604 37,100  Level FlightAware
09:16AM 34.9640 30.3710 127° Southeast 524 603 37,100  Level FlightAware
09:17AM 34.9130 30.4540 127° Southeast 523 602 37,100  Level FlightAware
09:17AM 34.8690 30.5240 127° Southeast 523 602 37,100  Level FlightAware
09:18AM 34.8090 30.6210 127° Southeast 522 601 37,100  Level FlightAware
09:18AM 34.7710 30.6820 127° Southeast 521 600 37,100  Level FlightAware
09:19AM 34.7040 30.7890 127° Southeast 520 598 37,100  Level FlightAware
09:20AM 34.6480 30.8780 127° Southeast 525 604 37,100  Level FlightAware
09:20AM 34.5890 30.9720 127° Southeast 526 605 37,100  Level FlightAware
09:21AM 34.5430 31.0440 128° Southeast 526 605 37,100  Level FlightAware
09:21AM 34.4960 31.1190 127° Southeast 527 606 37,100  Level FlightAware
09:22AM 34.4400 31.2070 128° Southeast 525 604 37,100  Level FlightAware
09:23AM 34.3880 31.2880 128° Southeast 525 604 37,100  Level FlightAware
09:23AM 34.3360 31.3700 128° Southeast 524 603 37,100  Level FlightAware
09:24AM 34.2830 31.4530 128° Southeast 524 603 37,100  Level FlightAware
09:24AM 34.2450 31.5120 128° Southeast 524 603 37,100  Level FlightAware
09:25AM 34.1840 31.6080 128° Southeast 523 602 37,100  Level FlightAware
09:26AM 34.1320 31.6890 128° Southeast 523 602 37,100  Level FlightAware
09:26AM 34.0710 31.7830 128° Southeast 523 602 37,100  Level FlightAware
09:27AM 34.0280 31.8500 128° Southeast 523 602 37,100  Level FlightAware
09:27AM 33.9690 31.9410 128° Southeast 523 602 37,100  Level FlightAware
09:28AM 33.9370 31.9900 128° Southeast 523 602 37,100  Level FlightAware
09:29AM 33.8600 32.1090 128° Southeast 523 602 37,100  Level FlightAware
09:29AM 33.8110 32.1840 128° Southeast 522 601 37,100  Level FlightAware
09:30AM 33.7600 32.2620 128° Southeast 522 601 37,100  Level FlightAware
09:30AM 33.7100 32.3390 128° Southeast 522 601 37,100  Level FlightAware
09:31AM 33.6460 32.4350 129° Southeast 521 600 37,100  Level FlightAware
09:32AM 33.5920 32.5180 128° Southeast 521 600 37,100 -240 Level FlightAware
09:32AM 33.5220 32.6230 129° Southeast 520 598 36,800 -840 Descending FlightAware
09:33AM 33.4780 32.6900 128° Southeast 522 601 36,000 -1,200 Descending FlightAware
09:33AM 33.4280 32.7650 129° Southeast 520 598 35,500 -900 Descending FlightAware
09:34AM 33.3830 32.8340 128° Southeast 517 595 35,000 -1,680 Descending FlightAware
09:35AM 33.3140 32.9380 128° Southeast 512 589 33,400 -2,520 Descending FlightAware
09:35AM 33.2510 33.0320 129° Southeast 498 573 31,700 -2,460 Descending FlightAware
09:36AM 33.2030 33.1040 129° Southeast 492 566 30,500 -2,280 Descending FlightAware
09:37AM 33.1460 33.1880 129° Southeast 485 558 28,900 -2,340 Descending FlightAware
09:37AM 33.1010 33.2560 128° Southeast 476 548 27,700 -1,980 Descending FlightAware
09:38AM 33.0660 33.3070 129° Southeast 468 539 26,800 -2,100 Descending FlightAware
09:38AM 33.0180 33.3740 131° Southeast 456 525 25,400 -2,280 Descending FlightAware
09:39AM 32.9640 33.4490 131° Southeast 445 512 24,100 -2,100 Descending FlightAware
09:40AM 32.9080 33.5270 131° Southeast 428 493 22,800 -1,920 Descending FlightAware
09:40AM 32.8650 33.5860 131° Southeast 420 483 21,800 -1,740 Descending FlightAware
09:41AM 32.8230 33.6450 130° Southeast 424 488 20,800 -1,800 Descending FlightAware
09:41AM 32.7810 33.7040 130° Southeast 421 484 19,800 -1,860 Descending FlightAware
09:42AM 32.7310 33.7730 131° Southeast 401 461 18,600 -1,680 Descending FlightAware
09:42AM 32.7010 33.8150 130° Southeast 391 450 17,900 -1,620 Descending FlightAware
09:43AM 32.6560 33.8770 131° Southeast 380 437 16,900 -1,740 Descending FlightAware
09:44AM 32.6150 33.9340 130° Southeast 389 448 15,900 -1,620 Descending FlightAware
09:44AM 32.5600 34.0090 131° Southeast 385 443 14,700 -1,620 Descending FlightAware
09:45AM 32.5330 34.0460 131° Southeast 381 438 14,000 -1,620 Descending FlightAware
09:45AM 32.4870 34.1100 130° Southeast 367 422 12,900 -1,560 Descending FlightAware
09:46AM 32.4440 34.1680 131° Southeast 350 403 12,000 -1,320 Descending FlightAware
09:47AM 32.4260 34.1930 130° Southeast 345 397 11,500 -420 Descending FlightAware
09:47AM 32.3840 34.2520 130° Southeast 345 397 11,500  Level FlightAware
09:48AM 32.3560 34.2930 129° Southeast 345 397 11,500  Level FlightAware
09:48AM 32.3250 34.3360 130° Southeast 345 397 11,500 -1,500 Level FlightAware
09:49AM 32.2830 34.3900 133° Southeast 279 321 9,600 -1,680 Descending FlightAware
09:50AM 32.2630 34.4170 131° Southeast 279 321 9,600  Level FlightAware
09:50AM 32.2510 34.4350 128° Southeast 279 321 9,600  Level FlightAware
09:50AM 32.2320 34.4610 131° Southeast 279 321 9,600 -1,920 Level FlightAware
09:52AM 32.1410 34.6310 122° Southeast 265 305 5,100 -1,800 Descending FlightAware
09:53AM 32.1180 34.6730 123° Southeast 263 303 5,100  Level FlightAware
09:53AM 32.1090 34.6890 124° Southeast 266 306 5,100  Level FlightAware
09:53AM 32.0950 34.7140 123° Southeast 262 302 5,100  Level FlightAware
09:54AM 32.0780 34.7450 123° Southeast 250 288 5,100 60 Level FlightAware
09:55AM 32.0570 34.7840 122° Southeast 243 280 5,200 -240 Climbing FlightAware
09:55AM 32.0270 34.8130 141° Southeast 223 257 4,800 -360 Descending FlightAware
09:56AM 32.0120 34.8310 134° Southeast 223 257 4,800  Level FlightAware
09:58AM 32.0000 34.8667 148° Southeast  Level FlightAware Approximate
09:59AM 32.0095 34.8769 148° Southeast  Level Estimated
10:00AM 32.0095 34.8769 148° Southeast  Level Estimated
10:01AM 32.0095 34.8769 148° Southeast  Level Estimated